TimeMDT,TemperatureF,Dew PointF,Humidity,Sea Level PressureIn,VisibilityMPH,Wind Direction,Wind SpeedMPH,Gust SpeedMPH,PrecipitationIn,Events,Conditions,WindDirDegrees,DateUTC
12:12 AM,46.4,26.6,46,30.57,10.0,SW,9.2,16.1,N/A,,Clear,230,2013-05-14 06:12:00
12:32 AM,46.4,26.6,46,30.57,10.0,SSW,8.1,-,N/A,,Clear,210,2013-05-14 06:32:00
12:52 AM,44.6,26.6,49,30.56,10.0,SW,10.4,16.1,N/A,,Clear,220,2013-05-14 06:52:00
1:12 AM,44.6,26.6,49,30.56,10.0,SW,10.4,-,N/A,,Clear,230,2013-05-14 07:12:00
1:32 AM,44.6,26.6,49,30.55,10.0,SSW,9.2,17.3,N/A,,Clear,210,2013-05-14 07:32:00
1:52 AM,44.6,26.6,49,30.55,10.0,SSW,10.4,17.3,N/A,,Clear,210,2013-05-14 07:52:00
2:12 AM,44.6,26.6,49,30.54,10.0,SW,10.4,-,N/A,,Clear,220,2013-05-14 08:12:00
2:32 AM,44.6,26.6,49,30.53,10.0,WSW,10.4,-,N/A,,Clear,240,2013-05-14 08:32:00
2:52 AM,44.6,26.6,49,30.53,10.0,SW,10.4,-,N/A,,Clear,230,2013-05-14 08:52:00
3:12 AM,44.6,26.6,49,30.53,10.0,WSW,8.1,-,N/A,,Clear,250,2013-05-14 09:12:00
3:32 AM,44.6,24.8,46,30.53,10.0,WSW,9.2,16.1,N/A,,Clear,250,2013-05-14 09:32:00
3:52 AM,44.6,24.8,46,30.53,10.0,SW,8.1,-,N/A,,Clear,230,2013-05-14 09:52:00
4:12 AM,44.6,23.0,43,30.52,10.0,WSW,8.1,-,N/A,,Clear,250,2013-05-14 10:12:00
4:32 AM,44.6,23.0,43,30.52,10.0,SW,6.9,-,N/A,,Clear,230,2013-05-14 10:32:00
4:52 AM,44.6,23.0,43,30.52,10.0,WSW,6.9,-,N/A,,Clear,250,2013-05-14 10:52:00
5:12 AM,44.6,23.0,43,30.52,10.0,WSW,5.8,-,N/A,,Clear,240,2013-05-14 11:12:00
5:32 AM,44.6,24.8,46,30.52,10.0,WSW,6.9,-,N/A,,Clear,250,2013-05-14 11:32:00
5:52 AM,44.6,24.8,46,30.52,10.0,West,15.0,-,N/A,,Clear,260,2013-05-14 11:52:00
6:12 AM,42.8,24.8,49,30.52,10.0,West,15.0,-,N/A,,Clear,260,2013-05-14 12:12:00
6:32 AM,44.6,23.0,43,30.53,10.0,West,8.1,-,N/A,,Clear,260,2013-05-14 12:32:00
6:52 AM,44.6,23.0,43,30.53,10.0,West,15.0,19.6,N/A,,Clear,260,2013-05-14 12:52:00
7:12 AM,46.4,23.0,40,30.53,10.0,West,11.5,-,N/A,,Clear,270,2013-05-14 13:12:00
7:32 AM,46.4,23.0,40,30.54,10.0,West,10.4,-,N/A,,Clear,270,2013-05-14 13:32:00
7:52 AM,46.4,23.0,40,30.54,10.0,West,6.9,-,N/A,,Clear,270,2013-05-14 13:52:00
8:12 AM,46.4,23.0,40,30.54,10.0,West,9.2,-,N/A,,Clear,270,2013-05-14 14:12:00
8:32 AM,46.4,21.2,37,30.54,10.0,West,9.2,-,N/A,,Clear,260,2013-05-14 14:32:00
8:52 AM,50.0,21.2,32,30.54,10.0,West,10.4,-,N/A,,Clear,280,2013-05-14 14:52:00
9:12 AM,50.0,23.0,35,30.54,10.0,West,12.7,17.3,N/A,,Clear,270,2013-05-14 15:12:00
9:32 AM,51.8,24.8,35,30.54,10.0,West,8.1,-,N/A,,Scattered Clouds,280,2013-05-14 15:32:00
9:52 AM,51.8,23.0,33,30.54,10.0,West,11.5,17.3,N/A,,Scattered Clouds,280,2013-05-14 15:52:00
10:12 AM,53.6,26.6,35,30.53,10.0,West,10.4,-,N/A,,Clear,260,2013-05-14 16:12:00
10:32 AM,53.6,24.8,33,30.53,10.0,West,11.5,18.4,N/A,,Clear,280,2013-05-14 16:32:00
10:52 AM,53.6,26.6,35,30.52,10.0,West,13.8,18.4,N/A,,Clear,280,2013-05-14 16:52:00
10:58 AM,53.6,23.0,30,30.52,10.0,West,13.8,20.7,N/A,,Clear,260,2013-05-14 16:58:00
2:12 PM,53.6,19.4,26,30.46,10.0,West,9.2,17.3,N/A,,Mostly Cloudy,280,2013-05-14 20:12:00
2:32 PM,53.6,28.4,38,30.46,10.0,East,12.7,21.9,N/A,,Overcast,100,2013-05-14 20:32:00
2:52 PM,51.8,28.4,41,30.46,10.0,ESE,9.2,-,N/A,,Overcast,110,2013-05-14 20:52:00
3:12 PM,51.8,28.4,41,30.46,10.0,ESE,9.2,-,N/A,Thunderstorm,Thunderstorm,110,2013-05-14 21:12:00
3:32 PM,51.8,28.4,41,30.45,10.0,SE,11.5,18.4,N/A,,Overcast,140,2013-05-14 21:32:00
3:52 PM,46.4,30.2,53,30.46,10.0,South,24.2,28.8,N/A,Rain,Light Rain,170,2013-05-14 21:52:00
4:12 PM,44.6,32.0,61,30.47,10.0,South,29.9,-,N/A,,Drizzle,180,2013-05-14 22:12:00
4:32 PM,44.6,32.0,61,30.46,10.0,South,23.0,-,0.01,Rain,Light Rain,170,2013-05-14 22:32:00
4:52 PM,44.6,32.0,61,30.45,10.0,SSE,21.9,-,0.01,,Overcast,160,2013-05-14 22:52:00
5:12 PM,44.6,32.0,61,30.44,10.0,SSE,23.0,-,N/A,,Scattered Clouds,160,2013-05-14 23:12:00
5:32 PM,44.6,30.2,57,30.46,10.0,SSE,5.8,-,N/A,,Scattered Clouds,160,2013-05-14 23:32:00
5:52 PM,44.6,32.0,61,30.46,10.0,East,4.6,-,N/A,,Overcast,90,2013-05-14 23:52:00
6:12 PM,44.6,32.0,61,30.46,10.0,East,8.1,-,N/A,,Mostly Cloudy,80,2013-05-15 00:12:00
6:32 PM,44.6,32.0,61,30.46,10.0,SE,5.8,-,N/A,,Scattered Clouds,140,2013-05-15 00:32:00
6:52 PM,42.8,32.0,66,30.46,10.0,SSE,10.4,-,N/A,,Mostly Cloudy,160,2013-05-15 00:52:00
7:12 PM,41.0,32.0,70,30.46,10.0,SSE,13.8,-,N/A,,Overcast,160,2013-05-15 01:12:00
7:32 PM,41.0,32.0,70,30.46,10.0,SSE,15.0,-,N/A,Rain,Rain,160,2013-05-15 01:32:00
7:52 PM,41.0,33.8,76,30.47,10.0,SSW,5.8,13.8,N/A,Rain,Rain,200,2013-05-15 01:52:00
8:12 PM,41.0,33.8,76,30.46,10.0,South,16.1,-,N/A,Rain,Light Rain,170,2013-05-15 02:12:00
8:32 PM,42.8,32.0,66,30.47,10.0,WSW,3.5,17.3,N/A,,Light Drizzle,240,2013-05-15 02:32:00
8:52 PM,41.0,32.0,70,30.47,7.0,West,6.9,-,N/A,Rain,Rain,260,2013-05-15 02:52:00
9:12 PM,41.0,32.0,70,30.47,10.0,West,4.6,-,0.01,,Overcast,270,2013-05-15 03:12:00
9:32 PM,41.0,32.0,70,30.47,10.0,West,15.0,-,0.01,,Overcast,280,2013-05-15 03:32:00
9:52 PM,41.0,33.8,76,30.48,10.0,West,11.5,18.4,0.01,,Overcast,280,2013-05-15 03:52:00
10:12 PM,41.0,33.8,76,30.48,10.0,West,9.2,-,N/A,,Overcast,280,2013-05-15 04:12:00
10:32 PM,44.6,32.0,61,30.47,10.0,Calm,Calm,-,N/A,,Overcast,0,2013-05-15 04:32:00
10:52 PM,42.8,32.0,66,30.47,10.0,West,4.6,-,N/A,,Overcast,280,2013-05-15 04:52:00
11:12 PM,42.8,32.0,66,30.46,10.0,West,9.2,-,N/A,,Overcast,280,2013-05-15 05:12:00
11:32 PM,44.6,32.0,61,30.46,10.0,North,3.5,-,N/A,,Overcast,360,2013-05-15 05:32:00
11:52 PM,44.6,30.2,57,30.46,10.0,West,5.8,-,N/A,,Overcast,270,2013-05-15 05:52:00